createdAt,value
2017-08-26T00:02:11.474Z,5.07
2017-08-26T00:04:38.714Z,5.40
2017-08-26T00:07:06.857Z,5.17
2017-08-26T00:09:33.872Z,5.83
2017-08-26T00:12:02.009Z,5.00
2017-08-26T00:14:29.264Z,5.67
2017-08-26T00:16:56.468Z,5.53
2017-08-26T00:19:23.660Z,5.70
2017-08-26T00:21:51.799Z,5.07
2017-08-26T00:24:19.004Z,5.00
2017-08-26T00:26:46.210Z,5.07
2017-08-26T00:29:13.418Z,5.33
2017-08-26T00:31:40.646Z,5.83
2017-08-26T00:34:07.849Z,6.37
2017-08-26T00:36:35.053Z,6.07
2017-08-26T00:39:03.203Z,6.00
2017-08-26T00:41:30.425Z,5.70
2017-08-26T00:43:57.640Z,5.40
2017-08-26T00:46:24.849Z,5.50
2017-08-26T00:48:52.057Z,5.70
2017-08-26T00:51:19.261Z,6.20
2017-08-26T00:53:46.472Z,5.80
2017-08-26T00:56:13.693Z,5.37
2017-08-26T00:58:40.897Z,5.60
2017-08-26T01:01:08.104Z,5.27
2017-08-26T01:03:35.308Z,6.70
2017-08-26T01:06:02.513Z,5.60
2017-08-26T01:08:29.760Z,5.83
2017-08-26T01:10:56.960Z,6.30
2017-08-26T01:13:24.156Z,6.47
2017-08-26T01:15:51.362Z,6.20
2017-08-26T01:18:18.568Z,5.93
2017-08-26T01:20:45.788Z,7.00
2017-08-26T01:23:12.994Z,6.47
2017-08-26T01:25:40.203Z,6.07
2017-08-26T01:28:07.409Z,6.63
2017-08-26T01:30:34.611Z,6.50
2017-08-26T01:33:01.837Z,8.77
2017-08-26T01:35:29.048Z,7.60
2017-08-26T01:37:56.244Z,7.70
2017-08-26T01:40:24.385Z,7.70
2017-08-26T01:42:51.785Z,6.87
2017-08-26T01:45:19.016Z,8.03
2017-08-26T01:47:46.224Z,8.50
2017-08-26T01:50:13.436Z,7.57
2017-08-26T01:52:40.653Z,8.57
2017-08-26T01:55:07.878Z,6.97
2017-08-26T01:57:35.100Z,7.23
2017-08-26T02:00:02.304Z,7.17
2017-08-26T02:02:30.474Z,7.73
2017-08-26T02:04:57.689Z,7.63
2017-08-26T02:07:24.940Z,6.83
2017-08-26T02:09:52.171Z,6.67
2017-08-26T02:12:19.385Z,7.60
2017-08-26T02:14:46.596Z,8.20
2017-08-26T02:17:13.623Z,7.80
2017-08-26T02:19:40.840Z,6.27
2017-08-26T02:22:08.063Z,5.67
2017-08-26T02:24:35.276Z,6.53
2017-08-26T02:27:02.484Z,7.10
2017-08-26T02:29:29.709Z,6.60
2017-08-26T02:31:57.861Z,7.07
2017-08-26T02:34:25.090Z,6.13
2017-08-26T02:36:52.297Z,6.90
2017-08-26T02:39:19.509Z,6.80
2017-08-26T02:41:46.718Z,6.00
2017-08-26T02:44:13.940Z,6.40
2017-08-26T02:46:43.144Z,6.10
2017-08-26T02:49:10.347Z,6.00
2017-08-26T02:51:37.572Z,6.00
2017-08-26T02:54:04.772Z,6.93
2017-08-26T02:56:31.968Z,6.27
2017-08-26T02:59:01.144Z,6.17
2017-08-26T03:01:28.353Z,6.20
2017-08-26T03:03:55.556Z,7.00
2017-08-26T03:06:22.761Z,6.60
2017-08-26T03:08:49.968Z,6.40
2017-08-26T03:11:17.189Z,6.70
2017-08-26T03:13:44.393Z,6.97
2017-08-26T03:16:11.593Z,6.33
2017-08-26T03:18:38.793Z,6.63
2017-08-26T03:21:05.993Z,6.93
2017-08-26T03:23:33.224Z,7.00
2017-08-26T03:26:00.436Z,6.30
2017-08-26T03:28:27.633Z,6.43
2017-08-26T03:30:54.838Z,6.60
2017-08-26T03:33:22.721Z,6.00
2017-08-26T03:35:49.953Z,6.73
2017-08-26T03:38:18.089Z,6.50
2017-08-26T03:40:45.284Z,6.73
2017-08-26T03:43:12.493Z,6.93
2017-08-26T03:45:39.713Z,6.77
2017-08-26T03:48:06.945Z,6.83
2017-08-26T03:50:34.161Z,7.10
2017-08-26T03:53:01.377Z,6.90
2017-08-26T03:55:29.804Z,6.50
2017-08-26T03:57:57.988Z,6.90
2017-08-26T04:00:25.240Z,6.60
2017-08-26T04:02:52.444Z,6.87
2017-08-26T04:05:19.649Z,6.33
2017-08-26T04:07:46.861Z,6.73
2017-08-26T04:10:14.086Z,6.40
2017-08-26T04:12:41.309Z,7.07
2017-08-26T04:15:08.520Z,6.40
2017-08-26T04:17:35.727Z,6.43
2017-08-26T04:20:02.961Z,7.77
2017-08-26T04:22:30.180Z,7.10
2017-08-26T04:24:57.456Z,6.83
2017-08-26T04:27:25.452Z,7.57
2017-08-26T04:29:53.796Z,6.40
2017-08-26T04:32:20.992Z,7.30
2017-08-26T04:34:48.196Z,6.23
2017-08-26T04:37:15.420Z,5.80
2017-08-26T04:39:42.613Z,6.47
2017-08-26T04:42:09.821Z,7.10
2017-08-26T04:44:37.022Z,6.80
2017-08-26T04:47:04.229Z,6.37
2017-08-26T04:49:31.451Z,5.73
2017-08-26T04:51:58.671Z,6.07
2017-08-26T04:54:25.889Z,6.07
2017-08-26T04:56:53.093Z,5.40
2017-08-26T04:59:20.295Z,5.57
2017-08-26T05:01:49.478Z,6.17
2017-08-26T05:04:16.686Z,5.63
2017-08-26T05:06:43.893Z,5.93
2017-08-26T05:09:11.100Z,6.30
2017-08-26T05:11:38.457Z,5.97
2017-08-26T05:14:05.681Z,5.83
2017-08-26T05:16:32.885Z,6.00
2017-08-26T05:19:00.104Z,6.30
2017-08-26T05:21:27.308Z,4.90
2017-08-26T05:23:54.513Z,5.50
2017-08-26T05:26:21.730Z,6.00
2017-08-26T05:28:48.929Z,5.63
2017-08-26T05:31:17.072Z,5.70
2017-08-26T05:33:44.281Z,5.30
2017-08-26T05:36:11.481Z,6.37
2017-08-26T05:38:38.704Z,4.90
2017-08-26T05:41:05.913Z,5.60
2017-08-26T05:43:33.129Z,5.17
2017-08-26T05:46:00.356Z,5.13
2017-08-26T05:48:27.566Z,5.67
2017-08-26T05:50:54.625Z,5.23
2017-08-26T05:53:22.785Z,5.10
2017-08-26T05:55:50.002Z,5.70
2017-08-26T05:58:17.207Z,5.03
2017-08-26T06:00:44.413Z,5.20
2017-08-26T06:03:11.651Z,6.13
2017-08-26T06:05:38.852Z,5.77
2017-08-26T06:08:07.011Z,5.50
2017-08-26T06:10:34.217Z,4.73
2017-08-26T06:13:01.444Z,5.10
2017-08-26T06:15:29.584Z,5.20
2017-08-26T06:17:56.792Z,4.50
2017-08-26T06:20:23.992Z,4.67
2017-08-26T06:22:51.188Z,5.07
2017-08-26T06:25:18.421Z,4.70
2017-08-26T06:27:45.624Z,4.63
2017-08-26T06:30:12.822Z,4.87
2017-08-26T06:32:40.027Z,5.40
2017-08-26T06:35:07.227Z,5.03
2017-08-26T06:37:34.455Z,5.17
2017-08-26T06:40:01.673Z,4.73
2017-08-26T06:42:28.873Z,4.53
2017-08-26T06:44:57.020Z,4.43
2017-08-26T06:47:24.040Z,4.43
2017-08-26T06:49:53.188Z,4.93
2017-08-26T06:52:20.400Z,4.93
2017-08-26T06:54:47.592Z,5.03
2017-08-26T06:57:14.820Z,4.47
2017-08-26T06:59:42.021Z,5.73
2017-08-26T07:02:11.175Z,4.60
2017-08-26T07:04:38.377Z,4.20
2017-08-26T07:07:05.570Z,4.73
2017-08-26T07:09:32.772Z,4.20
2017-08-26T07:11:59.964Z,4.67
2017-08-26T07:14:27.188Z,4.50
2017-08-26T07:16:54.442Z,4.50
2017-08-26T07:19:21.650Z,5.07
2017-08-26T07:21:48.853Z,4.23
2017-08-26T07:24:16.054Z,5.03
2017-08-26T07:26:45.225Z,4.00
2017-08-26T07:29:12.425Z,4.27
2017-08-26T07:31:39.625Z,4.80
2017-08-26T07:34:06.832Z,4.90
2017-08-26T07:36:34.044Z,5.10
2017-08-26T07:39:01.265Z,4.20
2017-08-26T07:41:28.479Z,4.60
2017-08-26T07:43:55.676Z,3.90
2017-08-26T07:46:22.872Z,3.97
2017-08-26T07:48:50.073Z,4.13
2017-08-26T07:51:19.224Z,4.90
2017-08-26T07:53:46.424Z,4.53
2017-08-26T07:56:13.620Z,4.47
2017-08-26T07:58:40.898Z,4.17
2017-08-26T08:01:08.113Z,5.00
2017-08-26T08:03:35.334Z,4.53
2017-08-26T08:06:03.484Z,4.13
2017-08-26T08:08:30.712Z,3.93
2017-08-26T08:10:57.925Z,3.80
2017-08-26T08:13:25.127Z,4.40
2017-08-26T08:15:52.404Z,4.07
2017-08-26T08:18:19.609Z,3.63
2017-08-26T08:20:47.779Z,3.70
2017-08-26T08:23:14.980Z,4.10
2017-08-26T08:25:42.299Z,4.30
2017-08-26T08:28:09.528Z,3.40
2017-08-26T08:30:36.736Z,3.83
2017-08-26T08:33:03.937Z,4.47
2017-08-26T08:35:31.133Z,4.80
2017-08-26T08:37:58.342Z,4.03
2017-08-26T08:40:25.560Z,3.80
2017-08-26T08:42:52.771Z,3.90
2017-08-26T08:45:19.972Z,4.20
2017-08-26T08:47:47.185Z,4.00
2017-08-26T08:50:14.386Z,3.90
2017-08-26T08:52:41.609Z,3.27
2017-08-26T08:55:08.804Z,3.93
2017-08-26T08:57:36.004Z,3.77
2017-08-26T09:00:04.151Z,3.80
2017-08-26T09:02:31.358Z,4.40
2017-08-26T09:04:58.585Z,4.10
2017-08-26T09:07:25.780Z,4.07
2017-08-26T09:09:52.986Z,3.83
2017-08-26T09:12:20.185Z,4.27
2017-08-26T09:14:47.384Z,4.03
2017-08-26T09:17:14.604Z,4.30
2017-08-26T09:19:41.798Z,3.80
2017-08-26T09:22:08.813Z,3.87
2017-08-26T09:24:36.032Z,3.43
2017-08-26T09:27:03.229Z,3.60
2017-08-26T09:29:30.453Z,3.87
2017-08-26T09:31:57.652Z,3.70
2017-08-26T09:34:25.785Z,3.93
2017-08-26T09:36:53.002Z,4.30
2017-08-26T09:39:20.208Z,4.13
2017-08-26T09:41:47.428Z,4.13
2017-08-26T09:44:14.629Z,3.83
2017-08-26T09:46:42.785Z,4.40
2017-08-26T09:49:09.805Z,3.53
2017-08-26T09:51:37.000Z,4.30
2017-08-26T09:54:04.227Z,4.10
2017-08-26T09:56:31.684Z,3.83
2017-08-26T09:58:58.886Z,4.40
2017-08-26T10:01:26.099Z,4.07
2017-08-26T10:03:55.394Z,4.07
2017-08-26T10:06:22.616Z,3.73
2017-08-26T10:08:49.816Z,3.90
2017-08-26T10:11:17.012Z,4.23
2017-08-26T10:13:44.232Z,4.20
2017-08-26T10:16:12.361Z,4.00
2017-08-26T10:18:39.588Z,3.70
2017-08-26T10:21:06.798Z,4.23
2017-08-26T10:23:34.000Z,3.23
2017-08-26T10:26:01.205Z,3.83
2017-08-26T10:28:28.417Z,3.30
2017-08-26T10:30:56.400Z,3.17
2017-08-26T10:33:23.416Z,4.23
2017-08-26T10:35:50.424Z,4.47
2017-08-26T10:38:17.442Z,3.80
2017-08-26T10:40:44.453Z,4.30
2017-08-26T10:43:11.489Z,4.40
2017-08-26T10:45:38.505Z,3.60
2017-08-26T10:48:05.519Z,3.80
2017-08-26T10:50:32.540Z,3.83
2017-08-26T10:52:59.565Z,3.60
2017-08-26T10:55:26.787Z,3.80
2017-08-26T10:57:53.817Z,3.20
2017-08-26T11:00:21.020Z,3.43
2017-08-26T11:02:48.219Z,3.87
2017-08-26T11:05:15.244Z,3.83
2017-08-26T11:07:42.753Z,3.87
2017-08-26T11:10:09.953Z,3.27
2017-08-26T11:12:37.157Z,3.33
2017-08-26T11:15:04.357Z,3.47
2017-08-26T11:17:31.557Z,4.00
2017-08-26T11:19:58.779Z,3.23
2017-08-26T11:22:25.984Z,3.60
2017-08-26T11:24:53.200Z,3.47
2017-08-26T11:27:20.215Z,3.80
2017-08-26T11:29:47.425Z,3.70
2017-08-26T11:32:14.644Z,3.77
2017-08-26T11:34:41.850Z,3.77
2017-08-26T11:37:09.049Z,3.80
2017-08-26T11:39:36.253Z,3.30
2017-08-26T11:42:03.452Z,3.70
2017-08-26T11:44:30.736Z,4.43
2017-08-26T11:46:57.945Z,4.63
2017-08-26T11:49:25.139Z,3.27
2017-08-26T11:51:53.601Z,4.10
2017-08-26T11:54:20.829Z,3.93
2017-08-26T11:56:53.697Z,3.23
2017-08-26T11:59:20.932Z,3.10
2017-08-26T12:01:48.133Z,3.27
2017-08-26T12:04:16.293Z,3.50
2017-08-26T12:06:43.500Z,3.90
2017-08-26T12:09:10.728Z,4.30
2017-08-26T12:11:37.933Z,3.33
2017-08-26T12:14:05.161Z,3.70
2017-08-26T12:16:32.382Z,3.13
2017-08-26T12:18:59.584Z,3.77
2017-08-26T12:21:26.818Z,3.30
2017-08-26T12:23:54.028Z,3.20
2017-08-26T12:26:21.229Z,3.23
2017-08-26T12:28:48.429Z,3.33
2017-08-26T12:31:15.626Z,3.10
2017-08-26T12:33:42.886Z,3.30
2017-08-26T12:36:11.017Z,2.77
2017-08-26T12:38:38.224Z,3.53
2017-08-26T12:41:05.249Z,3.47
2017-08-26T12:43:32.460Z,3.60
2017-08-26T12:46:01.640Z,3.10
2017-08-26T12:48:28.861Z,3.83
2017-08-26T12:50:56.120Z,3.40
2017-08-26T12:53:23.328Z,3.13
2017-08-26T12:55:50.524Z,3.30
2017-08-26T12:58:17.749Z,2.77
2017-08-26T13:00:45.893Z,3.90
2017-08-26T13:03:13.093Z,3.20
2017-08-26T13:05:40.289Z,3.27
2017-08-26T13:08:07.487Z,4.00
2017-08-26T13:10:34.708Z,4.20
2017-08-26T13:13:01.906Z,3.30
2017-08-26T13:15:29.108Z,2.80
2017-08-26T13:17:56.304Z,3.27
2017-08-26T13:20:23.513Z,2.97
2017-08-26T13:22:50.733Z,2.90
2017-08-26T13:25:17.964Z,3.00
2017-08-26T13:27:45.176Z,2.90
2017-08-26T13:30:12.381Z,3.00
2017-08-26T13:32:39.585Z,3.20
2017-08-26T13:35:06.809Z,3.30
2017-08-26T13:37:34.962Z,2.93
2017-08-26T13:40:02.169Z,2.73
2017-08-26T13:42:29.373Z,3.20
2017-08-26T13:44:56.569Z,3.00
2017-08-26T13:47:23.790Z,3.03
2017-08-26T13:49:50.993Z,3.03
2017-08-26T13:52:18.213Z,3.23
2017-08-26T13:54:45.414Z,2.77
2017-08-26T13:57:12.617Z,2.90
2017-08-26T13:59:39.853Z,3.90
2017-08-26T14:02:07.057Z,2.83
2017-08-26T14:04:34.308Z,2.70
2017-08-26T14:07:01.510Z,3.00
2017-08-26T14:09:29.656Z,3.13
2017-08-26T14:11:56.908Z,3.27
2017-08-26T14:14:24.112Z,2.70
2017-08-26T14:16:51.308Z,2.60
2017-08-26T14:19:18.528Z,2.67
2017-08-26T14:21:46.700Z,2.53
2017-08-26T14:24:13.920Z,2.77
2017-08-26T14:26:42.050Z,2.73
2017-08-26T14:29:09.270Z,2.97
2017-08-26T14:31:36.470Z,3.20
2017-08-26T14:34:03.672Z,3.07
2017-08-26T14:36:30.901Z,3.00
2017-08-26T14:38:58.102Z,3.10
2017-08-26T14:41:25.304Z,3.30
2017-08-26T14:43:52.500Z,3.00
2017-08-26T14:46:19.701Z,3.80
2017-08-26T14:48:46.935Z,3.33
2017-08-26T14:51:14.196Z,3.00
2017-08-26T14:53:41.401Z,3.83
2017-08-26T14:56:08.633Z,4.17
2017-08-26T14:58:35.828Z,4.10
2017-08-26T15:01:03.058Z,3.60
2017-08-26T15:03:30.249Z,3.10
2017-08-26T15:05:58.396Z,3.30
2017-08-26T15:08:25.592Z,2.90
2017-08-26T15:10:52.786Z,3.10
2017-08-26T15:13:20.009Z,3.37
2017-08-26T15:15:48.932Z,3.10
2017-08-26T15:18:16.160Z,3.03
2017-08-26T15:20:44.320Z,4.00
2017-08-26T15:23:11.520Z,2.97
2017-08-26T15:25:38.740Z,3.10
2017-08-26T15:28:05.944Z,3.20
2017-08-26T15:30:33.148Z,3.17
2017-08-26T15:33:00.349Z,3.13
2017-08-26T15:35:27.545Z,3.30
2017-08-26T15:37:54.780Z,3.40
2017-08-26T15:40:21.977Z,3.13
2017-08-26T15:42:49.174Z,3.50
2017-08-26T15:45:17.338Z,3.47
2017-08-26T15:47:44.540Z,3.53
2017-08-26T15:50:11.770Z,3.03
2017-08-26T15:52:38.992Z,3.47
2017-08-26T15:55:06.192Z,3.30
2017-08-26T15:57:33.387Z,3.20
2017-08-26T16:00:00.604Z,3.30
2017-08-26T16:02:27.833Z,3.47
2017-08-26T16:04:55.074Z,3.40
2017-08-26T16:07:22.272Z,3.67
2017-08-26T16:09:49.472Z,3.30
2017-08-26T16:12:16.672Z,3.40
2017-08-26T16:14:43.892Z,3.83
2017-08-26T16:17:11.094Z,4.10
2017-08-26T16:19:38.293Z,3.40
2017-08-26T16:22:06.417Z,4.37
2017-08-26T16:24:33.619Z,3.63
2017-08-26T16:27:00.836Z,4.37
2017-08-26T16:29:28.048Z,3.37
2017-08-26T16:31:55.253Z,3.70
2017-08-26T16:34:22.449Z,3.33
2017-08-26T16:36:49.677Z,3.43
2017-08-26T16:39:16.904Z,3.50
2017-08-26T16:41:45.045Z,3.37
2017-08-26T16:44:12.248Z,3.00
2017-08-26T16:46:39.449Z,3.23
2017-08-26T16:49:06.656Z,3.03
2017-08-26T16:51:33.891Z,3.50
2017-08-26T16:54:01.100Z,3.70
2017-08-26T16:56:28.309Z,4.90
2017-08-26T16:58:55.525Z,3.87
2017-08-26T17:01:22.724Z,4.90
2017-08-26T17:03:51.900Z,4.00
2017-08-26T17:06:19.104Z,3.77
2017-08-26T17:08:46.309Z,3.97
2017-08-26T17:11:13.541Z,3.77
2017-08-26T17:13:40.741Z,4.10
2017-08-26T17:16:07.940Z,3.80
2017-08-26T17:18:35.146Z,4.40
2017-08-26T17:21:02.353Z,4.47
2017-08-26T17:23:29.558Z,3.70
2017-08-26T17:25:56.756Z,4.23
2017-08-26T17:28:23.952Z,4.00
2017-08-26T17:30:52.092Z,4.57
2017-08-26T17:33:19.296Z,4.43
2017-08-26T17:35:46.502Z,4.50
2017-08-26T17:38:13.720Z,5.20
2017-08-26T17:40:40.753Z,4.10
2017-08-26T17:43:07.958Z,3.90
2017-08-26T17:45:35.161Z,3.93
2017-08-26T17:48:02.360Z,3.90
2017-08-26T17:50:29.590Z,4.00
2017-08-26T17:52:56.805Z,4.63
2017-08-26T17:55:24.009Z,5.87
2017-08-26T17:57:52.148Z,5.30
2017-08-26T18:00:19.352Z,4.77
2017-08-26T18:02:46.736Z,4.47
2017-08-26T18:05:13.935Z,4.70
2017-08-26T18:07:41.149Z,5.03
2017-08-26T18:10:08.373Z,5.30
2017-08-26T18:12:35.577Z,5.40
2017-08-26T18:15:02.805Z,4.80
2017-08-26T18:17:30.940Z,4.83
2017-08-26T18:19:58.162Z,4.33
2017-08-26T18:22:25.379Z,6.20
2017-08-26T18:24:52.589Z,6.63
2017-08-26T18:27:19.816Z,5.60
2017-08-26T18:29:47.018Z,5.07
2017-08-26T18:32:14.215Z,4.97
2017-08-26T18:34:41.426Z,5.30
2017-08-26T18:37:08.627Z,4.17
2017-08-26T18:39:35.864Z,5.40
2017-08-26T18:42:03.069Z,4.90
2017-08-26T18:44:30.266Z,4.63
2017-08-26T18:46:57.468Z,5.43
2017-08-26T18:49:24.684Z,4.80
2017-08-26T18:51:51.905Z,4.43
2017-08-26T18:54:19.133Z,4.93
2017-08-26T18:56:46.332Z,5.70
2017-08-26T18:59:13.538Z,5.40
2017-08-26T19:01:40.743Z,5.23
2017-08-26T19:04:09.913Z,5.10
2017-08-26T19:06:37.120Z,5.57
2017-08-26T19:09:03.877Z,5.30
2017-08-26T19:11:31.085Z,5.43
2017-08-26T19:13:58.101Z,4.97
2017-08-26T19:16:27.249Z,4.70
2017-08-26T19:18:54.478Z,5.07
2017-08-26T19:21:22.645Z,4.90
2017-08-26T19:23:49.862Z,4.80
2017-08-26T19:26:18.001Z,5.00
2017-08-26T19:28:45.229Z,5.17
2017-08-26T19:31:12.436Z,4.87
2017-08-26T19:33:39.650Z,5.97
2017-08-26T19:36:06.868Z,5.40
2017-08-26T19:38:34.072Z,6.40
2017-08-26T19:41:01.308Z,5.53
2017-08-26T19:43:28.512Z,6.00
2017-08-26T19:45:55.726Z,6.17
2017-08-26T19:48:23.879Z,6.03
2017-08-26T19:53:49.584Z,5.87
2017-08-26T19:56:16.821Z,5.60
2017-08-26T19:58:44.029Z,5.53
2017-08-26T20:01:11.245Z,5.80
2017-08-26T20:03:38.458Z,5.97
2017-08-26T20:06:05.708Z,5.93
2017-08-26T20:08:32.913Z,6.60
2017-08-26T20:11:00.125Z,6.00
2017-08-26T20:13:27.757Z,6.23
2017-08-26T20:15:54.966Z,5.53
2017-08-26T20:18:22.201Z,6.53
2017-08-26T20:20:49.412Z,6.57
2017-08-26T20:23:16.616Z,6.80
2017-08-26T20:25:43.968Z,6.00
2017-08-26T20:28:12.127Z,5.20
2017-08-26T20:30:39.356Z,7.00
2017-08-26T20:33:06.568Z,6.37
2017-08-26T20:35:33.589Z,5.73
2017-08-26T20:38:00.610Z,6.20
2017-08-26T20:40:27.824Z,6.13
2017-08-26T20:42:55.058Z,6.23
2017-08-26T20:45:23.221Z,6.30
2017-08-26T20:47:50.430Z,6.00
2017-08-26T20:50:18.576Z,5.40
2017-08-26T20:52:45.781Z,5.37
2017-08-26T20:55:13.009Z,5.30
2017-08-26T20:57:40.024Z,4.60
2017-08-26T21:00:09.602Z,5.23
2017-08-26T21:02:36.627Z,6.97
2017-08-26T21:05:03.650Z,5.23
2017-08-26T21:07:30.921Z,5.40
2017-08-26T21:09:58.124Z,5.07
2017-08-26T21:12:25.321Z,4.83
2017-08-26T21:14:52.546Z,5.90
2017-08-26T21:17:20.701Z,4.93
2017-08-26T21:19:47.928Z,5.37
2017-08-26T21:22:16.073Z,5.20
2017-08-26T21:24:43.276Z,4.90
2017-08-26T21:27:10.480Z,5.17
2017-08-26T21:29:38.452Z,5.00
2017-08-26T21:32:05.692Z,5.20
2017-08-26T21:34:32.896Z,4.60
2017-08-26T21:37:00.113Z,4.80
2017-08-26T21:39:27.325Z,5.00
2017-08-26T21:41:54.533Z,4.30
2017-08-26T21:44:21.762Z,4.60
2017-08-26T21:46:48.977Z,4.17
2017-08-26T21:49:15.940Z,4.93
2017-08-26T21:51:45.113Z,5.30
2017-08-26T21:54:12.133Z,4.40
2017-08-26T21:56:39.166Z,4.50
2017-08-26T21:59:06.373Z,4.50
2017-08-26T22:01:33.592Z,5.30
2017-08-26T22:04:00.814Z,4.30
2017-08-26T22:06:28.029Z,4.00
2017-08-26T22:08:55.245Z,4.60
2017-08-26T22:11:22.457Z,4.33
2017-08-26T22:13:50.632Z,4.50
2017-08-26T22:16:17.837Z,4.00
2017-08-26T22:18:47.030Z,4.40
2017-08-26T22:21:14.264Z,4.17
2017-08-26T22:23:42.148Z,4.17
2017-08-26T22:26:09.356Z,4.23
2017-08-26T22:28:37.512Z,5.13
2017-08-26T22:31:04.750Z,4.10
2017-08-26T22:33:31.952Z,4.40
2017-08-26T22:35:59.169Z,5.07
2017-08-26T22:38:26.377Z,4.97
2017-08-26T22:40:53.592Z,5.40
2017-08-26T22:43:20.828Z,3.67
2017-08-26T22:45:49.005Z,4.60
2017-08-26T22:48:16.236Z,4.40
2017-08-26T22:50:43.435Z,4.47
2017-08-26T22:53:10.647Z,5.20
2017-08-26T22:55:37.870Z,4.50
2017-08-26T22:58:05.076Z,4.40
2017-08-26T23:00:32.286Z,5.10
2017-08-26T23:03:00.420Z,4.13
2017-08-26T23:05:27.629Z,3.80
2017-08-26T23:07:54.857Z,4.60
2017-08-26T23:10:22.068Z,4.30
2017-08-26T23:12:49.281Z,3.80
2017-08-26T23:15:16.497Z,4.27
2017-08-26T23:17:43.712Z,4.53
2017-08-26T23:20:12.873Z,4.00
2017-08-26T23:22:40.085Z,4.03
2017-08-26T23:25:07.289Z,3.63
2017-08-26T23:27:34.489Z,4.63
2017-08-26T23:30:01.697Z,4.20
2017-08-26T23:32:28.949Z,3.97
2017-08-26T23:34:56.153Z,4.40
2017-08-26T23:37:24.301Z,4.50
2017-08-26T23:39:51.513Z,4.20
2017-08-26T23:42:18.708Z,4.80
2017-08-26T23:44:45.745Z,4.53
2017-08-26T23:47:12.764Z,4.20
2017-08-26T23:49:40.915Z,4.17
2017-08-26T23:52:08.121Z,3.60
2017-08-26T23:54:36.245Z,4.60
2017-08-26T23:57:03.473Z,3.80
2017-08-26T23:59:30.731Z,4.43
